Latest Weather Observations for Jandakot

IDW60901

Issued at 10:51 pm WST Tuesday 19 March 2019 (issued every 10 minutes, with the page automatically refreshed every 10 minutes)

About weather observations | Map of Perth area stations | Latest observations for Perth area | Other Formats
Station Details ID: 009172 Name: JANDAKOT AERO Lat: -32.10 Lon: 115.88 Height: 30.0 m
Data from the previous 72 hours. | See also: Recent months at Jandakot
Date/Time
WST
Temp
°C
App
Temp
°C
Dew
Point
°C
Rel
Hum
%
Delta-T
°C
Wind Press
QNH
hPa
Press
MSL
hPa
Rain since
9am
mm
Dir  Spd
km/h
Gust
km/h
Spd
kts
Gust
kts
19/10:30pm 21.7 23.3 19.1 85 1.6 SW 9 9 5 5 1010.6 1010.5 0.0
19/10:00pm 22.3 25.3 19.3 83 1.9 SW 2 6 1 3 1010.8 1010.7 0.0
19/09:30pm 22.3 25.0 19.5 84 1.8 SW 4 6 2 3 1010.9 1010.8 0.0
19/09:00pm 22.7 26.2 19.5 82 2.0 CALM 0 0 0 0 1011.0 1010.9 0.0
19/08:30pm 22.8 26.3 19.6 82 2.0 CALM 0 0 0 0 1011.0 1010.9 0.0
19/08:00pm 22.7 24.9 19.3 81 2.2 SSW 6 9 3 5 1010.9 1010.8 0.0
19/07:30pm 23.9 26.3 20.0 79 2.5 SSW 7 9 4 5 1010.5 1010.4 0.0
19/07:00pm 24.3 26.3 20.0 77 2.8 SSW 9 15 5 8 1009.9 1009.8 0.0
19/06:30pm 24.5 25.8 20.2 77 2.8 SSW 13 17 7 9 1009.6 1009.5 0.0
19/06:00pm 25.2 25.7 20.0 73 3.4 S 17 22 9 12 1009.1 1009.0 0.0
19/05:30pm 25.3 25.9 20.3 74 3.3 WSW 17 20 9 11 1008.9 1008.8 0.0
19/05:00pm 26.5 26.6 19.9 67 4.3 SW 19 24 10 13 1008.7 1008.6 0.0
19/04:30pm 27.4 27.9 20.0 64 4.8 SW 17 22 9 12 1008.7 1008.6 0.0
19/04:00pm 27.3 27.6 19.6 62 5.0 WSW 17 22 9 12 1008.7 1008.6 0.0
19/03:30pm 27.6 25.5 19.7 62 5.1 WSW 30 37 16 20 1008.8 1008.7 0.0
19/03:00pm 29.1 26.5 19.4 55 6.3 WSW 32 39 17 21 1008.6 1008.4 0.0
19/02:30pm 29.1 27.5 20.0 58 6.0 WSW 28 33 15 18 1008.5 1008.3 0.0
19/02:00pm 29.5 27.6 20.1 57 6.2 W 30 33 16 18 1008.9 1008.8 0.0
19/01:30pm 30.6 30.0 20.5 54 6.7 W 24 30 13 16 1008.9 1008.8 0.0
19/01:00pm 33.5 34.6 19.6 44 9.2 NW 13 19 7 10 1009.0 1008.9 0.0
19/12:30pm 33.3 33.6 17.9 40 9.9 NNW 13 22 7 12 1009.3 1009.2 0.0
19/12:00pm 31.3 32.7 20.3 52 7.3 WNW 13 22 7 12 1009.9 1009.8 0.0
19/11:30am 32.1 33.0 17.6 42 9.3 NW 9 19 5 10 1010.2 1010.1 0.0
19/11:00am 31.2 30.7 17.9 45 8.5 NNW 17 24 9 13 1010.6 1010.5 0.0
19/10:30am 30.1 30.7 18.5 49 7.5 NW 13 20 7 11 1010.9 1010.8 0.0
19/10:00am 29.5 29.9 18.9 53 6.9 NNW 15 24 8 13 1011.0 1010.9 0.0
19/09:30am 29.4 28.8 16.6 46 8.0 NNW 15 20 8 11 1011.0 1010.9 0.0
19/09:00am 28.4 28.3 16.0 47 7.7 N 11 17 6 9 1010.9 1010.8 0.0
19/08:30am 27.9 26.9 15.5 46 7.6 N 15 20 8 11 1010.8 1010.7 0.0
19/08:00am 27.3 26.1 16.0 50 7.0 NNE 17 20 9 11 1010.6 1010.5 0.0
19/07:30am 25.5 25.9 16.4 57 5.6 NNE 9 13 5 7 1010.6 1010.5 0.0
19/07:00am 23.2 24.1 16.0 64 4.4 N 6 7 3 4 1010.5 1010.4 0.0
19/06:30am 23.5 23.0 15.8 62 4.7 NE 13 19 7 10 1010.2 1010.1 0.0
19/06:00am 23.9 22.6 15.7 60 5.0 ENE 17 20 9 11 1010.0 1009.9 0.0
19/05:30am 24.1 22.7 15.6 59 5.1 NE 17 22 9 12 1009.8 1009.7 0.0
19/05:00am 24.3 22.9 15.5 58 5.3 NE 17 22 9 12 1009.8 1009.7 0.0
19/04:30am 23.7 23.5 15.7 61 4.8 ENE 11 15 6 8 1009.7 1009.6 0.0
19/04:00am 23.4 23.5 15.5 61 4.8 NE 9 11 5 6 1009.6 1009.5 0.0
19/03:30am 23.4 23.9 15.5 61 4.8 E 7 11 4 6 1009.4 1009.3 0.0
19/03:00am 24.5 24.4 14.9 55 5.7 ENE 9 11 5 6 1009.7 1009.6 0.0
19/02:30am 25.1 25.0 14.9 53 6.1 E 9 17 5 9 1009.8 1009.7 0.0
19/02:00am 26.2 25.6 14.6 48 7.0 ENE 11 20 6 11 1010.0 1009.9 0.0
19/01:30am 26.6 25.2 14.4 47 7.3 ENE 15 22 8 12 1009.9 1009.8 0.0
19/01:00am 26.6 25.3 14.7 48 7.2 ENE 15 24 8 13 1009.7 1009.6 0.0
19/12:30am 27.0 25.4 15.1 48 7.2 ENE 17 26 9 14 1009.7 1009.6 0.0
19/12:00am 24.5 24.0 16.0 59 5.2 NE 13 17 7 9 1009.9 1009.8 0.0
 
Date/Time
WST
Temp
°C
App
Temp
°C
Dew
Point
°C
Rel
Hum
%
Delta-T
°C
Wind Press
QNH
hPa
Press
MSL
hPa
Rain since
9am
mm
Dir  Spd
km/h
Gust
km/h
Spd
kts
Gust
kts
18/11:30pm 23.6 24.0 16.4 64 4.4 SE 9 11 5 6 1010.1 1010.0 0.0
18/11:00pm 23.9 24.5 16.9 65 4.3 SE 9 13 5 7 1010.4 1010.3 0.0
18/10:30pm 24.1 25.1 16.9 64 4.4 S 7 11 4 6 1010.7 1010.6 0.0
18/10:00pm 24.1 24.7 16.9 64 4.4 SE 9 19 5 10 1011.0 1010.9 0.0
18/09:30pm 24.1 25.3 16.9 64 4.4 SW 6 7 3 4 1010.6 1010.5 0.0
18/09:00pm 24.3 25.4 17.1 64 4.5 S 7 9 4 5 1010.5 1010.4 0.0
18/08:30pm 24.7 25.3 16.9 62 4.8 SW 9 11 5 6 1010.4 1010.3 0.0
18/08:00pm 25.4 26.0 16.8 59 5.3 SSW 9 11 5 6 1010.6 1010.5 0.0
18/07:30pm 26.4 27.4 16.9 56 5.9 SSW 7 9 4 5 1010.2 1010.1 0.0
18/07:00pm 26.8 26.6 16.7 54 6.3 SW 13 17 7 9 1009.8 1009.7 0.0
18/06:30pm 27.8 26.6 17.0 51 6.8 SW 19 24 10 13 1009.5 1009.4 0.0
18/06:00pm 28.9 27.5 17.1 49 7.4 WSW 20 24 11 13 1009.4 1009.3 0.0
18/05:30pm 28.9 28.5 17.1 49 7.4 WSW 15 19 8 10 1009.5 1009.4 0.0
18/05:00pm 29.1 28.8 17.3 49 7.5 WSW 15 19 8 10 1009.5 1009.4 0.0
18/04:30pm 29.4 28.8 17.6 49 7.5 SW 17 22 9 12 1009.2 1009.1 0.0
18/04:00pm 29.9 28.5 18.0 48 7.6 WSW 22 28 12 15 1008.8 1008.7 0.0
18/03:30pm 30.6 28.3 17.7 46 8.2 WSW 26 30 14 16 1008.9 1008.8 0.0
18/03:00pm 30.6 29.1 17.7 46 8.2 WSW 22 30 12 16 1009.1 1009.0 0.0
18/02:30pm 32.6 30.4 16.8 38 10.0 W 24 28 13 15 1009.4 1009.3 0.0
18/02:00pm 32.5 30.4 17.2 40 9.8 W 24 30 13 16 1009.6 1009.5 0.0
18/01:30pm 33.1 31.4 17.3 39 10.1 W 22 28 12 15 1010.0 1009.9 0.0
18/01:00pm 34.5 33.8 16.4 34 11.5 W 15 22 8 12 1010.3 1010.2 0.0
18/12:30pm 35.0 35.4 15.3 30 12.3 NNE 7 17 4 9 1010.7 1010.6 0.0
18/12:00pm 34.7 34.1 15.6 32 12.0 NNE 13 19 7 10 1011.2 1011.1 0.0
18/11:30am 32.8 32.2 16.6 38 10.3 NNE 15 22 8 12 1011.7 1011.6 0.0
18/11:00am 32.4 31.1 16.7 39 9.9 NE 19 24 10 13 1012.2 1012.1 0.0
18/10:30am 32.6 32.3 16.4 37 10.2 NE 13 24 7 13 1012.7 1012.6 0.0
18/10:00am 30.7 30.1 16.7 43 8.8 NE 15 20 8 11 1013.0 1012.9 0.0
18/09:30am 29.1 27.9 17.0 48 7.6 ENE 19 24 10 13 1013.0 1012.9 0.0
18/09:00am 27.5 26.2 16.8 52 6.7 ENE 19 24 10 13 1013.1 1013.0 0.0
18/08:30am 26.4 25.9 16.9 56 5.9 ENE 15 24 8 13 1013.2 1013.1 0.0
18/08:00am 24.9 25.8 17.6 64 4.6 E 9 13 5 7 1013.2 1013.1 0.0
18/07:30am 23.4 24.0 17.8 71 3.5 E 11 13 6 7 1013.1 1013.0 0.0
18/07:00am 22.0 22.5 17.4 75 2.8 ESE 11 15 6 8 1012.9 1012.8 0.0
18/06:30am 20.8 20.8 17.2 80 2.2 ESE 13 17 7 9 1012.6 1012.5 0.0
18/06:00am 20.8 20.9 17.4 81 2.1 E 13 15 7 8 1012.4 1012.3 0.0
18/05:30am 20.8 21.3 17.4 81 2.1 ESE 11 15 6 8 1012.3 1012.2 0.0
18/05:00am 21.2 21.7 17.4 79 2.3 ESE 11 13 6 7 1012.1 1012.0 0.0
18/04:30am 22.2 22.0 17.6 75 2.8 ESE 15 19 8 10 1011.9 1011.8 0.0
18/04:00am 22.8 22.6 17.7 73 3.2 E 15 20 8 11 1011.9 1011.8 0.0
18/03:30am 23.2 22.7 17.7 71 3.4 E 17 24 9 13 1011.8 1011.7 0.0
18/03:00am 23.7 22.2 17.7 69 3.7 E 22 30 12 16 1011.8 1011.7 0.0
18/02:30am 24.0 22.8 17.0 65 4.3 E 19 26 10 14 1011.8 1011.7 0.0
18/02:00am 24.1 23.2 16.9 64 4.4 ESE 17 24 9 13 1011.9 1011.8 0.0
18/01:30am 24.7 24.6 16.9 62 4.8 E 13 22 7 12 1011.8 1011.7 0.0
18/01:00am 25.1 23.6 16.8 60 5.1 E 20 35 11 19 1011.7 1011.6 0.0
18/12:30am 25.5 24.2 16.9 59 5.3 E 19 28 10 15 1011.9 1011.8 0.0
18/12:00am 25.5 22.9 16.9 59 5.3 E 26 37 14 20 1011.8 1011.7 0.0
 
Date/Time
WST
Temp
°C
App
Temp
°C
Dew
Point
°C
Rel
Hum
%
Delta-T
°C
Wind Press
QNH
hPa
Press
MSL
hPa
Rain since
9am
mm
Dir  Spd
km/h
Gust
km/h
Spd
kts
Gust
kts
17/11:30pm 25.7 23.7 17.4 60 5.2 ESE 24 32 13 17 1011.9 1011.8 0.0
17/11:00pm 23.1 23.6 18.4 75 3.0 ESE 13 20 7 11 1012.1 1012.0 0.0
17/10:30pm 22.5 24.6 18.9 80 2.3 S 6 9 3 5 1012.5 1012.4 0.0
17/10:00pm 22.9 24.2 19.3 80 2.3 S 11 13 6 7 1012.6 1012.5 0.0
17/09:30pm 22.9 24.3 19.5 81 2.2 SSW 11 11 6 6 1013.0 1012.9 0.0
17/09:00pm 23.5 25.2 19.4 78 2.6 SSW 9 13 5 7 1013.2 1013.1 0.0
17/08:30pm 23.5 24.8 19.4 78 2.6 SW 11 13 6 7 1012.9 1012.8 0.0
17/08:00pm 23.9 24.9 19.4 76 2.9 SW 13 17 7 9 1012.6 1012.5 0.0
17/07:30pm 24.4 24.8 19.0 72 3.4 SW 15 20 8 11 1012.3 1012.2 0.0
17/07:00pm 24.9 24.6 19.1 70 3.7 SSW 19 24 10 13 1012.1 1012.0 0.0
17/06:30pm 25.5 23.7 18.7 66 4.3 SW 26 33 14 18 1011.9 1011.8 0.0
17/06:00pm 26.8 24.1 18.4 60 5.4 SW 30 37 16 20 1011.7 1011.6 0.0
17/05:30pm 28.0 25.7 18.4 56 6.1 SW 28 35 15 19 1011.5 1011.4 0.0
17/05:00pm 28.6 25.9 18.4 54 6.5 SW 30 39 16 21 1011.2 1011.1 0.0
17/04:30pm 29.1 26.3 18.2 51 7.0 SW 30 41 16 22 1011.2 1011.1 0.0
17/04:00pm 29.3 25.6 18.4 51 7.0 WSW 35 43 19 23 1011.2 1011.1 0.0
17/03:30pm 29.7 26.3 18.2 50 7.4 WSW 33 41 18 22 1011.3 1011.2 0.0
17/03:00pm 31.2 28.4 18.2 46 8.4 W 30 33 16 18 1011.3 1011.2 0.0
17/02:30pm 33.0 32.0 17.6 40 9.9 W 19 33 10 18 1011.4 1011.3 0.0
17/02:00pm 32.5 32.0 15.9 36 10.4 S 13 22 7 12 1011.9 1011.8 0.0
17/01:30pm 31.9 32.3 16.2 38 9.8 SSE 9 19 5 10 1012.2 1012.1 0.0
17/01:00pm 31.3 31.2 16.9 42 9.1 SE 13 28 7 15 1012.7 1012.6 0.0
17/12:30pm 30.8 31.8 16.8 43 8.8 E 7 17 4 9 1013.2 1013.1 0.0
17/12:00pm 29.8 29.7 16.9 45 8.1 ESE 13 22 7 12 1013.6 1013.5 0.0
17/11:30am 29.0 29.3 16.9 48 7.6 ESE 11 20 6 11 1013.9 1013.8 0.0
17/11:00am 29.1 28.9 17.6 50 7.3 E 15 20 8 11 1014.4 1014.3 0.0
17/10:30am 27.6 26.7 16.9 52 6.7 ESE 17 24 9 13 1015.0 1014.9 0.0
17/10:00am 27.4 26.4 17.6 55 6.2 E 19 28 10 15 1015.3 1015.2 0.0
17/09:30am 26.1 24.8 17.2 58 5.6 E 20 28 11 15 1015.4 1015.3 0.0
17/09:00am 24.9 23.1 16.9 61 4.9 ESE 22 28 12 15 1015.4 1015.3 0.0
17/08:30am 23.9 21.7 16.9 65 4.3 ESE 24 32 13 17 1015.5 1015.4 0.0
17/08:00am 22.5 20.9 16.5 69 3.7 SE 20 24 11 13 1015.8 1015.7 0.0
17/07:30am 21.6 21.2 16.3 72 3.2 SE 13 17 7 9 1015.6 1015.5 0.0
17/07:00am 20.2 20.0 15.8 76 2.6 SE 11 15 6 8 1015.4 1015.3 0.0
17/06:30am 18.9 18.2 15.4 80 2.1 SE 13 15 7 8 1015.3 1015.2 0.0
17/06:00am 18.4 18.3 14.9 80 2.0 SE 9 13 5 7 1015.0 1014.9 0.0
17/05:30am 18.7 17.9 15.0 79 2.2 SE 13 20 7 11 1014.8 1014.7 0.0
17/05:00am 19.0 17.4 14.9 77 2.4 SE 17 20 9 11 1014.5 1014.4 0.0
17/04:30am 19.4 18.5 14.9 75 2.6 SE 13 20 7 11 1014.5 1014.4 0.0
17/04:00am 19.6 17.9 14.6 73 2.9 SE 17 28 9 15 1014.4 1014.3 0.0
17/03:30am 19.8 17.5 14.6 72 3.0 ESE 20 32 11 17 1014.4 1014.3 0.0
17/03:00am 20.1 16.6 14.5 70 3.3 ESE 26 39 14 21 1014.2 1014.1 0.0
17/02:30am 20.3 19.2 14.2 68 3.5 ESE 13 20 7 11 1014.1 1014.0 0.0
17/02:00am 20.7 18.7 13.9 65 3.9 ESE 17 28 9 15 1013.8 1013.7 0.0
17/01:30am 21.1 18.5 13.8 63 4.2 SE 20 26 11 14 1014.0 1013.9 0.0
17/01:00am 21.7 19.0 13.6 60 4.7 ESE 20 32 11 17 1013.9 1013.8 0.0
17/12:30am 22.3 19.9 13.9 59 4.9 SE 19 28 10 15 1013.9 1013.8 0.0
17/12:00am 23.0 20.3 14.6 59 5.0 ESE 22 26 12 14 1013.9 1013.8 0.0
 
Date/Time
WST
Temp
°C
App
Temp
°C
Dew
Point
°C
Rel
Hum
%
Delta-T
°C
Wind Press
QNH
hPa
Press
MSL
hPa
Rain since
9am
mm
Dir  Spd
km/h
Gust
km/h
Spd
kts
Gust
kts
16/11:30pm 23.7 21.4 14.7 57 5.3 ESE 20 32 11 17 1013.9 1013.8 0.0
16/11:00pm 22.9 21.1 15.5 63 4.4 ESE 19 26 10 14 1013.8 1013.7 0.0

Latest Capital City Observations: Canberra | Sydney | Melbourne | Brisbane | Adelaide | Perth | Hobart | Darwin

Other formats

Comma delimited format used in spreadsheet applications
http://www.bom.gov.au/fwo/IDW60901/IDW60901.94609.axf

JavaScript Object Notation format (JSON) in row-major order
http://www.bom.gov.au/fwo/IDW60901/IDW60901.94609.json

Data quality

Most of these data are generated automatically and are frequently updated. Quality checks on data are not normally performed. It is possible for incorrect values to appear. Refer to information at About Latest Weather Observations and please check the disclaimer before using these data.